sensor_id;sensor_type;location;lat;lon;timestamp;P1;durP1;ratioP1;P2;durP2;ratioP2
9968;SDS011;5025;48.890;9.278;2023-03-08T00:02:13;5.90;;;5.20;;
9968;SDS011;5025;48.890;9.278;2023-03-08T00:04:38;5.73;;;5.13;;
9968;SDS011;5025;48.890;9.278;2023-03-08T00:07:03;8.03;;;5.87;;
9968;SDS011;5025;48.890;9.278;2023-03-08T00:09:28;6.50;;;5.50;;
9968;SDS011;5025;48.890;9.278;2023-03-08T00:11:54;6.70;;;5.40;;
9968;SDS011;5025;48.890;9.278;2023-03-08T00:14:19;6.20;;;4.93;;
9968;SDS011;5025;48.890;9.278;2023-03-08T00:16:46;6.00;;;5.33;;
9968;SDS011;5025;48.890;9.278;2023-03-08T00:19:11;6.00;;;5.30;;
9968;SDS011;5025;48.890;9.278;2023-03-08T00:21:37;5.57;;;5.07;;
9968;SDS011;5025;48.890;9.278;2023-03-08T00:24:02;6.57;;;5.40;;
9968;SDS011;5025;48.890;9.278;2023-03-08T00:26:27;5.43;;;4.93;;
9968;SDS011;5025;48.890;9.278;2023-03-08T00:28:53;6.00;;;5.40;;
9968;SDS011;5025;48.890;9.278;2023-03-08T00:31:18;5.80;;;5.20;;
9968;SDS011;5025;48.890;9.278;2023-03-08T00:33:43;6.57;;;5.67;;
9968;SDS011;5025;48.890;9.278;2023-03-08T00:36:12;5.30;;;4.80;;
9968;SDS011;5025;48.890;9.278;2023-03-08T00:38:40;6.70;;;5.67;;
9968;SDS011;5025;48.890;9.278;2023-03-08T00:41:05;7.00;;;5.80;;
9968;SDS011;5025;48.890;9.278;2023-03-08T00:43:31;6.57;;;5.40;;
9968;SDS011;5025;48.890;9.278;2023-03-08T00:45:57;6.33;;;5.53;;
9968;SDS011;5025;48.890;9.278;2023-03-08T00:48:23;5.90;;;5.20;;
9968;SDS011;5025;48.890;9.278;2023-03-08T00:50:48;8.60;;;6.00;;
9968;SDS011;5025;48.890;9.278;2023-03-08T00:53:14;6.53;;;5.83;;
9968;SDS011;5025;48.890;9.278;2023-03-08T00:55:46;7.77;;;6.50;;
9968;SDS011;5025;48.890;9.278;2023-03-08T00:58:13;6.30;;;5.67;;
9968;SDS011;5025;48.890;9.278;2023-03-08T01:00:38;7.10;;;5.80;;
9968;SDS011;5025;48.890;9.278;2023-03-08T01:03:03;7.10;;;6.20;;
9968;SDS011;5025;48.890;9.278;2023-03-08T01:05:28;6.47;;;5.80;;
9968;SDS011;5025;48.890;9.278;2023-03-08T01:07:54;7.37;;;6.10;;
9968;SDS011;5025;48.890;9.278;2023-03-08T01:10:19;6.50;;;5.40;;
9968;SDS011;5025;48.890;9.278;2023-03-08T01:12:44;7.13;;;6.37;;
9968;SDS011;5025;48.890;9.278;2023-03-08T01:15:10;9.83;;;6.50;;
9968;SDS011;5025;48.890;9.278;2023-03-08T01:17:35;7.27;;;6.50;;
9968;SDS011;5025;48.890;9.278;2023-03-08T01:20:01;8.20;;;6.33;;
9968;SDS011;5025;48.890;9.278;2023-03-08T01:22:26;7.70;;;6.10;;
9968;SDS011;5025;48.890;9.278;2023-03-08T01:24:51;6.80;;;6.10;;
9968;SDS011;5025;48.890;9.278;2023-03-08T01:27:17;8.37;;;6.40;;
9968;SDS011;5025;48.890;9.278;2023-03-08T01:29:42;7.30;;;6.50;;
9968;SDS011;5025;48.890;9.278;2023-03-08T01:32:08;7.63;;;6.57;;
9968;SDS011;5025;48.890;9.278;2023-03-08T01:34:35;7.53;;;6.73;;
9968;SDS011;5025;48.890;9.278;2023-03-08T01:37:01;6.67;;;6.00;;
9968;SDS011;5025;48.890;9.278;2023-03-08T01:39:26;8.10;;;6.80;;
9968;SDS011;5025;48.890;9.278;2023-03-08T01:41:51;8.63;;;6.90;;
9968;SDS011;5025;48.890;9.278;2023-03-08T01:44:17;9.37;;;6.93;;
9968;SDS011;5025;48.890;9.278;2023-03-08T01:46:46;8.77;;;7.23;;
9968;SDS011;5025;48.890;9.278;2023-03-08T01:49:16;8.23;;;7.37;;
9968;SDS011;5025;48.890;9.278;2023-03-08T01:52:02;8.00;;;7.20;;
9968;SDS011;5025;48.890;9.278;2023-03-08T01:54:34;8.67;;;7.33;;
9968;SDS011;5025;48.890;9.278;2023-03-08T01:57:05;8.53;;;6.87;;
9968;SDS011;5025;48.890;9.278;2023-03-08T01:59:33;7.80;;;6.70;;
9968;SDS011;5025;48.890;9.278;2023-03-08T02:01:59;9.03;;;7.30;;
9968;SDS011;5025;48.890;9.278;2023-03-08T02:04:26;8.17;;;7.27;;
9968;SDS011;5025;48.890;9.278;2023-03-08T02:06:51;8.17;;;7.03;;
9968;SDS011;5025;48.890;9.278;2023-03-08T02:09:17;8.53;;;6.80;;
9968;SDS011;5025;48.890;9.278;2023-03-08T02:11:43;9.77;;;7.50;;
9968;SDS011;5025;48.890;9.278;2023-03-08T02:14:09;8.50;;;7.13;;
9968;SDS011;5025;48.890;9.278;2023-03-08T02:16:34;10.23;;;7.80;;
9968;SDS011;5025;48.890;9.278;2023-03-08T02:19:04;8.00;;;7.17;;
9968;SDS011;5025;48.890;9.278;2023-03-08T02:21:37;9.13;;;7.60;;
9968;SDS011;5025;48.890;9.278;2023-03-08T02:24:06;9.83;;;7.40;;
9968;SDS011;5025;48.890;9.278;2023-03-08T02:26:42;7.77;;;6.67;;
9968;SDS011;5025;48.890;9.278;2023-03-08T02:29:09;8.53;;;7.40;;
9968;SDS011;5025;48.890;9.278;2023-03-08T02:31:34;7.70;;;6.90;;
9968;SDS011;5025;48.890;9.278;2023-03-08T02:33:59;9.30;;;7.30;;
9968;SDS011;5025;48.890;9.278;2023-03-08T02:36:25;9.90;;;7.67;;
9968;SDS011;5025;48.890;9.278;2023-03-08T02:38:50;8.23;;;7.30;;
9968;SDS011;5025;48.890;9.278;2023-03-08T02:41:15;8.73;;;7.00;;
9968;SDS011;5025;48.890;9.278;2023-03-08T02:43:40;7.97;;;7.07;;
9968;SDS011;5025;48.890;9.278;2023-03-08T02:46:06;8.60;;;7.47;;
9968;SDS011;5025;48.890;9.278;2023-03-08T02:48:31;7.97;;;7.17;;
9968;SDS011;5025;48.890;9.278;2023-03-08T02:50:56;9.77;;;7.27;;
9968;SDS011;5025;48.890;9.278;2023-03-08T02:53:22;7.90;;;7.00;;
9968;SDS011;5025;48.890;9.278;2023-03-08T02:55:47;9.00;;;7.30;;
9968;SDS011;5025;48.890;9.278;2023-03-08T02:58:12;9.37;;;7.90;;
9968;SDS011;5025;48.890;9.278;2023-03-08T03:00:39;10.33;;;7.70;;
9968;SDS011;5025;48.890;9.278;2023-03-08T03:03:04;9.90;;;7.80;;
9968;SDS011;5025;48.890;9.278;2023-03-08T03:05:29;10.17;;;7.93;;
9968;SDS011;5025;48.890;9.278;2023-03-08T03:07:55;9.10;;;7.30;;
9968;SDS011;5025;48.890;9.278;2023-03-08T03:10:22;9.50;;;7.10;;
9968;SDS011;5025;48.890;9.278;2023-03-08T03:12:48;9.10;;;7.43;;
9968;SDS011;5025;48.890;9.278;2023-03-08T03:15:13;9.20;;;7.90;;
9968;SDS011;5025;48.890;9.278;2023-03-08T03:17:38;8.70;;;7.50;;
9968;SDS011;5025;48.890;9.278;2023-03-08T03:20:04;10.27;;;7.70;;
9968;SDS011;5025;48.890;9.278;2023-03-08T03:22:33;10.13;;;7.70;;
9968;SDS011;5025;48.890;9.278;2023-03-08T03:24:58;8.00;;;7.20;;
9968;SDS011;5025;48.890;9.278;2023-03-08T03:27:23;9.20;;;6.77;;
9968;SDS011;5025;48.890;9.278;2023-03-08T03:29:49;8.97;;;7.23;;
9968;SDS011;5025;48.890;9.278;2023-03-08T03:32:14;8.67;;;7.07;;
9968;SDS011;5025;48.890;9.278;2023-03-08T03:34:39;9.10;;;7.20;;
9968;SDS011;5025;48.890;9.278;2023-03-08T03:37:05;8.47;;;7.23;;
9968;SDS011;5025;48.890;9.278;2023-03-08T03:39:30;9.20;;;7.00;;
9968;SDS011;5025;48.890;9.278;2023-03-08T03:41:59;9.33;;;7.40;;
9968;SDS011;5025;48.890;9.278;2023-03-08T03:44:25;9.27;;;7.17;;
9968;SDS011;5025;48.890;9.278;2023-03-08T03:46:53;8.23;;;7.10;;
9968;SDS011;5025;48.890;9.278;2023-03-08T03:49:18;9.97;;;7.23;;
9968;SDS011;5025;48.890;9.278;2023-03-08T03:51:43;8.43;;;7.00;;
9968;SDS011;5025;48.890;9.278;2023-03-08T03:54:09;7.57;;;6.80;;
9968;SDS011;5025;48.890;9.278;2023-03-08T03:56:34;7.27;;;6.30;;
9968;SDS011;5025;48.890;9.278;2023-03-08T03:58:59;8.00;;;7.20;;
9968;SDS011;5025;48.890;9.278;2023-03-08T04:01:25;8.07;;;6.67;;
9968;SDS011;5025;48.890;9.278;2023-03-08T04:03:52;8.50;;;7.43;;
9968;SDS011;5025;48.890;9.278;2023-03-08T04:06:20;7.37;;;6.43;;
9968;SDS011;5025;48.890;9.278;2023-03-08T04:08:47;7.43;;;6.63;;
9968;SDS011;5025;48.890;9.278;2023-03-08T04:11:17;7.93;;;6.90;;
9968;SDS011;5025;48.890;9.278;2023-03-08T04:13:45;8.00;;;6.50;;
9968;SDS011;5025;48.890;9.278;2023-03-08T04:18:47;7.53;;;6.67;;
9968;SDS011;5025;48.890;9.278;2023-03-08T04:21:12;7.83;;;6.57;;
9968;SDS011;5025;48.890;9.278;2023-03-08T04:23:38;7.97;;;7.03;;
9968;SDS011;5025;48.890;9.278;2023-03-08T04:26:04;7.57;;;6.37;;
9968;SDS011;5025;48.890;9.278;2023-03-08T04:28:30;7.63;;;6.70;;
9968;SDS011;5025;48.890;9.278;2023-03-08T04:30:58;7.47;;;6.33;;
9968;SDS011;5025;48.890;9.278;2023-03-08T04:33:24;7.03;;;6.30;;
9968;SDS011;5025;48.890;9.278;2023-03-08T04:35:49;8.43;;;6.63;;
9968;SDS011;5025;48.890;9.278;2023-03-08T04:38:14;8.23;;;6.33;;
9968;SDS011;5025;48.890;9.278;2023-03-08T04:40:45;7.50;;;6.60;;
9968;SDS011;5025;48.890;9.278;2023-03-08T04:43:30;8.07;;;6.80;;
9968;SDS011;5025;48.890;9.278;2023-03-08T04:46:00;8.00;;;6.73;;
9968;SDS011;5025;48.890;9.278;2023-03-08T04:48:25;7.77;;;6.93;;
9968;SDS011;5025;48.890;9.278;2023-03-08T04:50:59;8.33;;;7.40;;
9968;SDS011;5025;48.890;9.278;2023-03-08T04:53:26;8.43;;;6.83;;
9968;SDS011;5025;48.890;9.278;2023-03-08T04:55:52;7.03;;;6.33;;
9968;SDS011;5025;48.890;9.278;2023-03-08T04:58:18;8.33;;;6.57;;
9968;SDS011;5025;48.890;9.278;2023-03-08T05:00:44;8.57;;;7.03;;
9968;SDS011;5025;48.890;9.278;2023-03-08T05:03:09;7.17;;;6.07;;
9968;SDS011;5025;48.890;9.278;2023-03-08T05:05:35;9.27;;;6.40;;
9968;SDS011;5025;48.890;9.278;2023-03-08T05:08:00;7.93;;;6.93;;
9968;SDS011;5025;48.890;9.278;2023-03-08T05:10:29;8.10;;;6.87;;
9968;SDS011;5025;48.890;9.278;2023-03-08T05:12:55;9.10;;;7.43;;
9968;SDS011;5025;48.890;9.278;2023-03-08T05:15:21;7.83;;;7.00;;
9968;SDS011;5025;48.890;9.278;2023-03-08T05:17:47;9.13;;;6.93;;
9968;SDS011;5025;48.890;9.278;2023-03-08T05:20:13;8.07;;;6.90;;
9968;SDS011;5025;48.890;9.278;2023-03-08T05:22:39;8.37;;;7.43;;
9968;SDS011;5025;48.890;9.278;2023-03-08T05:25:04;7.50;;;6.70;;
9968;SDS011;5025;48.890;9.278;2023-03-08T05:27:31;9.73;;;7.83;;
9968;SDS011;5025;48.890;9.278;2023-03-08T05:29:57;8.97;;;7.93;;
9968;SDS011;5025;48.890;9.278;2023-03-08T05:32:22;8.73;;;7.00;;
9968;SDS011;5025;48.890;9.278;2023-03-08T05:34:47;10.67;;;7.70;;
9968;SDS011;5025;48.890;9.278;2023-03-08T05:37:15;10.10;;;7.93;;
9968;SDS011;5025;48.890;9.278;2023-03-08T05:39:41;8.87;;;7.80;;
9968;SDS011;5025;48.890;9.278;2023-03-08T05:42:06;9.57;;;7.87;;
9968;SDS011;5025;48.890;9.278;2023-03-08T05:44:32;9.27;;;7.43;;
9968;SDS011;5025;48.890;9.278;2023-03-08T05:46:57;10.27;;;7.67;;
9968;SDS011;5025;48.890;9.278;2023-03-08T05:49:22;10.37;;;8.50;;
9968;SDS011;5025;48.890;9.278;2023-03-08T05:51:48;9.10;;;8.20;;
9968;SDS011;5025;48.890;9.278;2023-03-08T05:54:13;8.93;;;7.87;;
9968;SDS011;5025;48.890;9.278;2023-03-08T05:56:38;8.83;;;7.70;;
9968;SDS011;5025;48.890;9.278;2023-03-08T05:59:03;11.00;;;8.53;;
9968;SDS011;5025;48.890;9.278;2023-03-08T06:01:29;9.17;;;7.80;;
9968;SDS011;5025;48.890;9.278;2023-03-08T06:03:55;9.20;;;7.63;;
9968;SDS011;5025;48.890;9.278;2023-03-08T06:06:22;8.87;;;7.50;;
9968;SDS011;5025;48.890;9.278;2023-03-08T06:08:49;9.73;;;7.43;;
9968;SDS011;5025;48.890;9.278;2023-03-08T06:11:14;7.90;;;6.97;;
9968;SDS011;5025;48.890;9.278;2023-03-08T06:13:40;9.13;;;7.67;;
9968;SDS011;5025;48.890;9.278;2023-03-08T06:16:06;9.67;;;8.13;;
9968;SDS011;5025;48.890;9.278;2023-03-08T06:18:32;10.27;;;7.97;;
9968;SDS011;5025;48.890;9.278;2023-03-08T06:23:26;8.87;;;7.53;;
9968;SDS011;5025;48.890;9.278;2023-03-08T06:25:52;9.47;;;7.60;;
9968;SDS011;5025;48.890;9.278;2023-03-08T06:28:18;10.10;;;9.00;;
9968;SDS011;5025;48.890;9.278;2023-03-08T06:30:43;10.53;;;9.27;;
9968;SDS011;5025;48.890;9.278;2023-03-08T06:33:08;11.13;;;8.10;;
9968;SDS011;5025;48.890;9.278;2023-03-08T06:35:34;10.33;;;8.53;;
9968;SDS011;5025;48.890;9.278;2023-03-08T06:37:59;11.33;;;8.97;;
9968;SDS011;5025;48.890;9.278;2023-03-08T06:40:25;9.30;;;8.27;;
9968;SDS011;5025;48.890;9.278;2023-03-08T06:42:50;10.70;;;8.70;;
9968;SDS011;5025;48.890;9.278;2023-03-08T06:45:15;11.93;;;9.17;;
9968;SDS011;5025;48.890;9.278;2023-03-08T06:47:41;9.93;;;8.07;;
9968;SDS011;5025;48.890;9.278;2023-03-08T06:50:06;9.30;;;8.30;;
9968;SDS011;5025;48.890;9.278;2023-03-08T06:52:32;9.33;;;8.03;;
9968;SDS011;5025;48.890;9.278;2023-03-08T06:55:02;10.53;;;8.43;;
9968;SDS011;5025;48.890;9.278;2023-03-08T06:57:30;9.97;;;7.67;;
9968;SDS011;5025;48.890;9.278;2023-03-08T06:59:56;9.33;;;8.00;;
9968;SDS011;5025;48.890;9.278;2023-03-08T07:02:21;9.67;;;8.17;;
9968;SDS011;5025;48.890;9.278;2023-03-08T07:04:47;9.47;;;7.87;;
9968;SDS011;5025;48.890;9.278;2023-03-08T07:07:12;9.17;;;7.70;;
9968;SDS011;5025;48.890;9.278;2023-03-08T07:09:37;9.37;;;8.20;;
9968;SDS011;5025;48.890;9.278;2023-03-08T07:12:03;9.73;;;8.13;;
9968;SDS011;5025;48.890;9.278;2023-03-08T07:14:28;9.50;;;7.70;;
9968;SDS011;5025;48.890;9.278;2023-03-08T07:16:53;9.30;;;7.93;;
9968;SDS011;5025;48.890;9.278;2023-03-08T07:19:19;7.70;;;6.90;;
9968;SDS011;5025;48.890;9.278;2023-03-08T07:21:44;8.90;;;7.70;;
9968;SDS011;5025;48.890;9.278;2023-03-08T07:24:09;9.27;;;7.23;;
9968;SDS011;5025;48.890;9.278;2023-03-08T07:26:35;8.73;;;7.83;;
9968;SDS011;5025;48.890;9.278;2023-03-08T07:29:00;8.50;;;7.60;;
9968;SDS011;5025;48.890;9.278;2023-03-08T07:31:26;9.43;;;7.60;;
9968;SDS011;5025;48.890;9.278;2023-03-08T07:33:53;9.00;;;7.63;;
9968;SDS011;5025;48.890;9.278;2023-03-08T07:36:18;10.13;;;8.30;;
9968;SDS011;5025;48.890;9.278;2023-03-08T07:38:43;8.57;;;7.37;;
9968;SDS011;5025;48.890;9.278;2023-03-08T07:41:10;10.87;;;7.87;;
9968;SDS011;5025;48.890;9.278;2023-03-08T07:43:36;10.17;;;8.40;;
9968;SDS011;5025;48.890;9.278;2023-03-08T07:46:01;11.30;;;8.70;;
9968;SDS011;5025;48.890;9.278;2023-03-08T07:48:28;9.87;;;8.60;;
9968;SDS011;5025;48.890;9.278;2023-03-08T07:50:58;14.67;;;9.17;;
9968;SDS011;5025;48.890;9.278;2023-03-08T07:53:26;9.47;;;8.40;;
9968;SDS011;5025;48.890;9.278;2023-03-08T07:55:51;11.33;;;9.30;;
9968;SDS011;5025;48.890;9.278;2023-03-08T07:58:16;9.53;;;8.53;;
9968;SDS011;5025;48.890;9.278;2023-03-08T08:00:42;9.20;;;7.90;;
9968;SDS011;5025;48.890;9.278;2023-03-08T08:03:07;10.13;;;8.63;;
9968;SDS011;5025;48.890;9.278;2023-03-08T08:05:33;10.63;;;9.07;;
9968;SDS011;5025;48.890;9.278;2023-03-08T08:08:00;11.63;;;9.03;;
9968;SDS011;5025;48.890;9.278;2023-03-08T08:10:25;11.63;;;8.10;;
9968;SDS011;5025;48.890;9.278;2023-03-08T08:12:50;11.27;;;8.97;;
9968;SDS011;5025;48.890;9.278;2023-03-08T08:15:15;10.33;;;8.90;;
9968;SDS011;5025;48.890;9.278;2023-03-08T08:17:41;10.50;;;8.97;;
9968;SDS011;5025;48.890;9.278;2023-03-08T08:20:07;10.17;;;8.87;;
9968;SDS011;5025;48.890;9.278;2023-03-08T08:22:33;10.50;;;8.70;;
9968;SDS011;5025;48.890;9.278;2023-03-08T08:25:00;11.47;;;9.20;;
9968;SDS011;5025;48.890;9.278;2023-03-08T08:27:25;9.00;;;8.10;;
9968;SDS011;5025;48.890;9.278;2023-03-08T08:29:50;9.93;;;8.37;;
9968;SDS011;5025;48.890;9.278;2023-03-08T08:32:15;8.87;;;7.80;;
9968;SDS011;5025;48.890;9.278;2023-03-08T08:34:41;10.07;;;8.37;;
9968;SDS011;5025;48.890;9.278;2023-03-08T08:37:06;10.37;;;8.97;;
9968;SDS011;5025;48.890;9.278;2023-03-08T08:39:31;10.43;;;8.10;;
9968;SDS011;5025;48.890;9.278;2023-03-08T08:41:57;9.03;;;8.00;;
9968;SDS011;5025;48.890;9.278;2023-03-08T08:44:24;9.20;;;8.20;;
9968;SDS011;5025;48.890;9.278;2023-03-08T08:46:49;9.70;;;8.67;;
9968;SDS011;5025;48.890;9.278;2023-03-08T08:49:15;10.10;;;8.70;;
9968;SDS011;5025;48.890;9.278;2023-03-08T08:51:40;9.40;;;7.40;;
9968;SDS011;5025;48.890;9.278;2023-03-08T08:54:05;9.93;;;8.77;;
9968;SDS011;5025;48.890;9.278;2023-03-08T08:56:31;9.40;;;8.40;;
9968;SDS011;5025;48.890;9.278;2023-03-08T08:58:58;10.00;;;8.83;;
9968;SDS011;5025;48.890;9.278;2023-03-08T09:01:26;9.53;;;8.37;;
9968;SDS011;5025;48.890;9.278;2023-03-08T09:03:53;9.67;;;8.10;;
9968;SDS011;5025;48.890;9.278;2023-03-08T09:06:20;8.93;;;8.03;;
9968;SDS011;5025;48.890;9.278;2023-03-08T09:08:50;10.33;;;8.40;;
9968;SDS011;5025;48.890;9.278;2023-03-08T09:11:18;12.37;;;9.00;;
9968;SDS011;5025;48.890;9.278;2023-03-08T09:13:44;9.37;;;8.07;;
9968;SDS011;5025;48.890;9.278;2023-03-08T09:16:16;9.03;;;8.07;;
9968;SDS011;5025;48.890;9.278;2023-03-08T09:18:46;10.47;;;8.80;;
9968;SDS011;5025;48.890;9.278;2023-03-08T09:21:11;9.53;;;8.50;;
9968;SDS011;5025;48.890;9.278;2023-03-08T09:23:38;9.90;;;8.47;;
9968;SDS011;5025;48.890;9.278;2023-03-08T09:26:03;12.10;;;9.63;;
9968;SDS011;5025;48.890;9.278;2023-03-08T09:28:30;10.33;;;9.33;;
9968;SDS011;5025;48.890;9.278;2023-03-08T09:30:55;11.10;;;9.23;;
9968;SDS011;5025;48.890;9.278;2023-03-08T09:33:21;11.13;;;8.50;;
9968;SDS011;5025;48.890;9.278;2023-03-08T09:35:56;10.03;;;8.67;;
9968;SDS011;5025;48.890;9.278;2023-03-08T09:38:22;10.50;;;9.23;;
9968;SDS011;5025;48.890;9.278;2023-03-08T09:40:52;11.80;;;10.20;;
9968;SDS011;5025;48.890;9.278;2023-03-08T09:43:39;11.87;;;10.07;;
9968;SDS011;5025;48.890;9.278;2023-03-08T09:46:12;12.30;;;10.43;;
9968;SDS011;5025;48.890;9.278;2023-03-08T09:48:41;14.10;;;11.27;;
9968;SDS011;5025;48.890;9.278;2023-03-08T09:51:12;12.37;;;10.90;;
9968;SDS011;5025;48.890;9.278;2023-03-08T09:53:40;12.53;;;10.80;;
9968;SDS011;5025;48.890;9.278;2023-03-08T09:56:30;12.23;;;10.93;;
9968;SDS011;5025;48.890;9.278;2023-03-08T09:59:14;13.20;;;10.73;;
9968;SDS011;5025;48.890;9.278;2023-03-08T10:10:02;10.57;;;9.17;;
9968;SDS011;5025;48.890;9.278;2023-03-08T10:15:51;12.43;;;10.10;;
9968;SDS011;5025;48.890;9.278;2023-03-08T10:21:10;12.13;;;10.80;;
9968;SDS011;5025;48.890;9.278;2023-03-08T10:23:37;11.80;;;10.23;;
9968;SDS011;5025;48.890;9.278;2023-03-08T10:26:08;11.17;;;9.97;;
9968;SDS011;5025;48.890;9.278;2023-03-08T10:28:35;12.33;;;10.00;;
9968;SDS011;5025;48.890;9.278;2023-03-08T10:31:01;12.10;;;10.57;;
9968;SDS011;5025;48.890;9.278;2023-03-08T10:33:40;11.43;;;10.10;;
9968;SDS011;5025;48.890;9.278;2023-03-08T10:38:36;12.50;;;10.47;;
9968;SDS011;5025;48.890;9.278;2023-03-08T10:41:11;12.10;;;10.80;;
9968;SDS011;5025;48.890;9.278;2023-03-08T10:43:50;11.70;;;10.47;;
9968;SDS011;5025;48.890;9.278;2023-03-08T10:46:22;11.77;;;9.90;;
9968;SDS011;5025;48.890;9.278;2023-03-08T10:48:48;10.93;;;9.10;;
9968;SDS011;5025;48.890;9.278;2023-03-08T10:51:20;12.17;;;9.10;;
9968;SDS011;5025;48.890;9.278;2023-03-08T10:56:38;11.50;;;8.23;;
9968;SDS011;5025;48.890;9.278;2023-03-08T10:59:19;9.73;;;7.73;;
9968;SDS011;5025;48.890;9.278;2023-03-08T11:01:57;9.07;;;7.87;;
9968;SDS011;5025;48.890;9.278;2023-03-08T11:04:37;8.77;;;7.30;;
9968;SDS011;5025;48.890;9.278;2023-03-08T11:07:09;7.50;;;6.67;;
9968;SDS011;5025;48.890;9.278;2023-03-08T11:09:35;7.17;;;6.47;;
9968;SDS011;5025;48.890;9.278;2023-03-08T11:12:01;6.50;;;5.77;;
9968;SDS011;5025;48.890;9.278;2023-03-08T11:14:26;5.70;;;5.10;;
9968;SDS011;5025;48.890;9.278;2023-03-08T11:25:28;3.20;;;2.90;;
9968;SDS011;5025;48.890;9.278;2023-03-08T11:30:53;2.60;;;2.50;;
9968;SDS011;5025;48.890;9.278;2023-03-08T11:36:23;3.63;;;2.30;;
9968;SDS011;5025;48.890;9.278;2023-03-08T11:38:57;1.73;;;1.63;;
9968;SDS011;5025;48.890;9.278;2023-03-08T11:41:43;1.60;;;1.50;;
9968;SDS011;5025;48.890;9.278;2023-03-08T11:44:27;1.50;;;1.37;;
9968;SDS011;5025;48.890;9.278;2023-03-08T11:55:45;2.23;;;1.90;;
9968;SDS011;5025;48.890;9.278;2023-03-08T11:58:23;1.67;;;1.57;;
9968;SDS011;5025;48.890;9.278;2023-03-08T12:01:03;2.23;;;1.70;;
9968;SDS011;5025;48.890;9.278;2023-03-08T12:03:41;1.37;;;1.20;;
9968;SDS011;5025;48.890;9.278;2023-03-08T12:06:16;2.17;;;1.97;;
9968;SDS011;5025;48.890;9.278;2023-03-08T12:08:48;1.63;;;1.53;;
9968;SDS011;5025;48.890;9.278;2023-03-08T12:11:18;2.50;;;2.30;;
9968;SDS011;5025;48.890;9.278;2023-03-08T12:13:52;1.70;;;1.60;;
9968;SDS011;5025;48.890;9.278;2023-03-08T12:18:59;1.20;;;1.10;;
9968;SDS011;5025;48.890;9.278;2023-03-08T12:24:38;1.80;;;1.70;;
9968;SDS011;5025;48.890;9.278;2023-03-08T12:27:17;2.43;;;1.23;;
9968;SDS011;5025;48.890;9.278;2023-03-08T12:30:02;1.47;;;1.40;;
9968;SDS011;5025;48.890;9.278;2023-03-08T12:32:38;1.70;;;1.60;;
9968;SDS011;5025;48.890;9.278;2023-03-08T12:35:06;2.80;;;2.30;;
9968;SDS011;5025;48.890;9.278;2023-03-08T12:40:50;0.87;;;0.87;;
9968;SDS011;5025;48.890;9.278;2023-03-08T12:45:43;1.40;;;1.30;;
9968;SDS011;5025;48.890;9.278;2023-03-08T12:48:28;1.27;;;1.27;;
9968;SDS011;5025;48.890;9.278;2023-03-08T12:53:43;1.20;;;1.20;;
9968;SDS011;5025;48.890;9.278;2023-03-08T12:59:00;1.33;;;1.30;;
9968;SDS011;5025;48.890;9.278;2023-03-08T13:01:39;2.77;;;2.57;;
9968;SDS011;5025;48.890;9.278;2023-03-08T13:04:05;1.50;;;1.47;;
9968;SDS011;5025;48.890;9.278;2023-03-08T13:11:51;1.30;;;1.10;;
9968;SDS011;5025;48.890;9.278;2023-03-08T13:14:57;0.97;;;0.97;;
9968;SDS011;5025;48.890;9.278;2023-03-08T13:19:51;1.63;;;1.13;;
9968;SDS011;5025;48.890;9.278;2023-03-08T13:22:24;1.53;;;1.00;;
9968;SDS011;5025;48.890;9.278;2023-03-08T13:24:55;1.33;;;1.07;;
9968;SDS011;5025;48.890;9.278;2023-03-08T13:29:59;1.90;;;1.10;;
9968;SDS011;5025;48.890;9.278;2023-03-08T13:32:39;2.00;;;1.00;;
9968;SDS011;5025;48.890;9.278;2023-03-08T13:35:05;0.80;;;0.80;;
9968;SDS011;5025;48.890;9.278;2023-03-08T13:37:30;0.90;;;0.90;;
9968;SDS011;5025;48.890;9.278;2023-03-08T13:39:57;0.97;;;0.90;;
9968;SDS011;5025;48.890;9.278;2023-03-08T13:42:24;1.20;;;0.77;;
9968;SDS011;5025;48.890;9.278;2023-03-08T13:44:51;1.93;;;0.80;;
9968;SDS011;5025;48.890;9.278;2023-03-08T13:47:22;1.67;;;1.07;;
9968;SDS011;5025;48.890;9.278;2023-03-08T13:49:50;1.10;;;1.00;;
9968;SDS011;5025;48.890;9.278;2023-03-08T13:52:21;0.70;;;0.70;;
9968;SDS011;5025;48.890;9.278;2023-03-08T13:54:52;1.07;;;1.00;;
9968;SDS011;5025;48.890;9.278;2023-03-08T13:59:53;0.73;;;0.73;;
9968;SDS011;5025;48.890;9.278;2023-03-08T14:02:21;1.07;;;1.07;;
9968;SDS011;5025;48.890;9.278;2023-03-08T14:04:48;1.00;;;1.00;;
9968;SDS011;5025;48.890;9.278;2023-03-08T14:07:24;0.93;;;0.90;;
9968;SDS011;5025;48.890;9.278;2023-03-08T14:09:52;2.00;;;0.90;;
9968;SDS011;5025;48.890;9.278;2023-03-08T14:12:18;1.30;;;1.20;;
9968;SDS011;5025;48.890;9.278;2023-03-08T14:14:47;0.90;;;0.90;;
9968;SDS011;5025;48.890;9.278;2023-03-08T14:17:20;1.10;;;1.10;;
9968;SDS011;5025;48.890;9.278;2023-03-08T14:19:55;0.87;;;0.70;;
9968;SDS011;5025;48.890;9.278;2023-03-08T14:22:22;0.90;;;0.90;;
9968;SDS011;5025;48.890;9.278;2023-03-08T14:24:54;1.23;;;1.00;;
9968;SDS011;5025;48.890;9.278;2023-03-08T14:30:01;0.90;;;0.90;;
9968;SDS011;5025;48.890;9.278;2023-03-08T14:33:26;0.93;;;0.93;;
9968;SDS011;5025;48.890;9.278;2023-03-08T14:35:39;1.00;;;1.00;;
9968;SDS011;5025;48.890;9.278;2023-03-08T14:38:12;0.60;;;0.60;;
9968;SDS011;5025;48.890;9.278;2023-03-08T14:40:47;2.77;;;1.90;;
9968;SDS011;5025;48.890;9.278;2023-03-08T14:43:15;0.73;;;0.73;;
9968;SDS011;5025;48.890;9.278;2023-03-08T14:45:53;0.80;;;0.80;;
9968;SDS011;5025;48.890;9.278;2023-03-08T14:50:52;0.80;;;0.80;;
9968;SDS011;5025;48.890;9.278;2023-03-08T14:54:03;0.80;;;0.80;;
9968;SDS011;5025;48.890;9.278;2023-03-08T14:56:30;0.90;;;0.90;;
9968;SDS011;5025;48.890;9.278;2023-03-08T14:59:00;0.63;;;0.63;;
9968;SDS011;5025;48.890;9.278;2023-03-08T15:01:30;0.57;;;0.57;;
9968;SDS011;5025;48.890;9.278;2023-03-08T15:03:57;0.57;;;0.57;;
9968;SDS011;5025;48.890;9.278;2023-03-08T15:06:27;0.90;;;0.90;;
9968;SDS011;5025;48.890;9.278;2023-03-08T15:08:55;0.70;;;0.70;;
9968;SDS011;5025;48.890;9.278;2023-03-08T15:11:22;0.60;;;0.60;;
9968;SDS011;5025;48.890;9.278;2023-03-08T15:13:47;0.77;;;0.77;;
9968;SDS011;5025;48.890;9.278;2023-03-08T15:16:13;0.90;;;0.90;;
9968;SDS011;5025;48.890;9.278;2023-03-08T15:18:38;0.90;;;0.90;;
9968;SDS011;5025;48.890;9.278;2023-03-08T15:21:03;1.50;;;1.23;;
9968;SDS011;5025;48.890;9.278;2023-03-08T15:23:32;0.50;;;0.50;;
9968;SDS011;5025;48.890;9.278;2023-03-08T15:26:00;0.83;;;0.83;;
9968;SDS011;5025;48.890;9.278;2023-03-08T15:28:29;2.13;;;1.00;;
9968;SDS011;5025;48.890;9.278;2023-03-08T15:30:54;1.63;;;0.80;;
9968;SDS011;5025;48.890;9.278;2023-03-08T15:33:20;1.10;;;1.10;;
9968;SDS011;5025;48.890;9.278;2023-03-08T15:35:46;0.70;;;0.70;;
9968;SDS011;5025;48.890;9.278;2023-03-08T15:38:13;1.00;;;1.00;;
9968;SDS011;5025;48.890;9.278;2023-03-08T15:40:40;1.00;;;1.00;;
9968;SDS011;5025;48.890;9.278;2023-03-08T15:43:05;1.00;;;1.00;;
9968;SDS011;5025;48.890;9.278;2023-03-08T15:45:31;1.23;;;1.00;;
9968;SDS011;5025;48.890;9.278;2023-03-08T15:47:57;1.63;;;1.27;;
9968;SDS011;5025;48.890;9.278;2023-03-08T15:50:27;1.10;;;1.10;;
9968;SDS011;5025;48.890;9.278;2023-03-08T15:52:53;1.87;;;1.50;;
9968;SDS011;5025;48.890;9.278;2023-03-08T15:55:20;0.80;;;0.70;;
9968;SDS011;5025;48.890;9.278;2023-03-08T15:57:46;1.37;;;1.30;;
9968;SDS011;5025;48.890;9.278;2023-03-08T16:00:13;1.40;;;1.30;;
9968;SDS011;5025;48.890;9.278;2023-03-08T16:02:40;1.30;;;1.20;;
9968;SDS011;5025;48.890;9.278;2023-03-08T16:05:06;0.90;;;0.90;;
9968;SDS011;5025;48.890;9.278;2023-03-08T16:07:33;1.67;;;1.13;;
9968;SDS011;5025;48.890;9.278;2023-03-08T16:09:59;2.10;;;1.50;;
9968;SDS011;5025;48.890;9.278;2023-03-08T16:12:25;2.03;;;1.00;;
9968;SDS011;5025;48.890;9.278;2023-03-08T16:14:51;1.30;;;1.20;;
9968;SDS011;5025;48.890;9.278;2023-03-08T16:17:18;2.03;;;1.60;;
9968;SDS011;5025;48.890;9.278;2023-03-08T16:19:44;1.53;;;1.43;;
9968;SDS011;5025;48.890;9.278;2023-03-08T16:22:10;1.97;;;1.60;;
9968;SDS011;5025;48.890;9.278;2023-03-08T16:24:35;3.30;;;2.00;;
9968;SDS011;5025;48.890;9.278;2023-03-08T16:27:00;3.43;;;1.97;;
9968;SDS011;5025;48.890;9.278;2023-03-08T16:29:28;3.27;;;1.97;;
9968;SDS011;5025;48.890;9.278;2023-03-08T16:31:55;1.67;;;1.00;;
9968;SDS011;5025;48.890;9.278;2023-03-08T16:34:22;2.17;;;1.40;;
9968;SDS011;5025;48.890;9.278;2023-03-08T16:36:48;1.80;;;1.70;;
9968;SDS011;5025;48.890;9.278;2023-03-08T16:39:14;2.70;;;1.80;;
9968;SDS011;5025;48.890;9.278;2023-03-08T16:41:39;1.40;;;1.30;;